Time;durP1;ratioP1;P1;durP2;ratioP2;P2;SDS_P1;SDS_P2;PMS_P1;PMS_P2;Temp;Humidity;BMP_temperature;BMP_pressure;BME280_temperature;BME280_humidity;BME280_pressure;Samples;Min_cycle;Max_cycle;Signal;HPM_P1;HPM_P2
2022/11/09 00:01:36;;;;;;;2.57;2.17;;;12.70;99.90;;;;;;5035907;28;20286;-78
2022/11/09 00:04:02;;;;;;;2.47;2.23;;;12.70;99.90;;;;;;5041938;28;20209;-87
2022/11/09 00:06:28;;;;;;;2.20;2.00;;;12.70;99.90;;;;;;5034242;28;20245;-79
2022/11/09 00:08:54;;;;;;;3.63;2.63;;;12.70;99.90;;;;;;5026496;28;20195;-73
2022/11/09 00:11:20;;;;;;;3.17;2.27;;;12.70;99.90;;;;;;5026480;28;20687;-81
2022/11/09 00:13:45;;;;;;;2.70;2.20;;;12.70;99.90;;;;;;5026713;28;20615;-82
2022/11/09 00:16:17;;;;;;;2.73;2.37;;;12.70;99.90;;;;;;5023730;28;20576;-79
2022/11/09 00:18:46;;;;;;;4.23;2.87;;;12.70;99.90;;;;;;5027063;28;20308;-72
2022/11/09 00:21:13;;;;;;;2.43;2.10;;;12.70;99.90;;;;;;5025012;28;20309;-75
2022/11/09 00:23:39;;;;;;;2.77;2.37;;;12.70;99.90;;;;;;5027042;28;20230;-73
2022/11/09 00:26:07;;;;;;;2.47;2.03;;;12.70;99.90;;;;;;5027123;28;20722;-74
2022/11/09 00:28:33;;;;;;;2.30;2.07;;;12.60;99.90;;;;;;5028035;28;20793;-73
2022/11/09 00:31:19;;;;;;;3.93;2.60;;;12.70;99.90;;;;;;5025756;28;20284;-73
2022/11/09 00:33:53;;;;;;;1.87;1.77;;;12.60;99.90;;;;;;5021565;28;20198;-71
2022/11/09 00:36:19;;;;;;;3.33;1.70;;;12.60;99.90;;;;;;5031352;28;20202;-78
2022/11/09 00:38:48;;;;;;;2.20;2.00;;;12.60;99.90;;;;;;5038019;28;20683;-78
2022/11/09 00:41:14;;;;;;;3.40;2.10;;;12.60;99.90;;;;;;5036399;28;20249;-76
2022/11/09 00:43:40;;;;;;;2.40;2.20;;;12.60;99.90;;;;;;5036769;28;20223;-72
2022/11/09 00:46:06;;;;;;;2.30;2.00;;;12.50;99.90;;;;;;5036797;28;20699;-73
2022/11/09 00:48:32;;;;;;;2.97;2.43;;;12.50;99.90;;;;;;5034554;28;20737;-72
2022/11/09 00:50:57;;;;;;;2.00;1.90;;;12.50;99.90;;;;;;5035856;28;20700;-73
2022/11/09 00:53:24;;;;;;;3.27;2.57;;;12.50;99.90;;;;;;5035849;28;20641;-76
2022/11/09 00:55:56;;;;;;;3.77;2.13;;;12.50;99.90;;;;;;5034484;28;20282;-69
2022/11/09 00:58:22;;;;;;;1.63;1.53;;;12.50;99.90;;;;;;5031125;28;20206;-72
2022/11/09 01:00:47;;;;;;;3.17;2.10;;;12.50;99.90;;;;;;5033041;28;20377;-75
2022/11/09 01:03:13;;;;;;;2.53;2.20;;;12.50;99.90;;;;;;5035922;28;20233;-76
2022/11/09 01:05:38;;;;;;;3.13;2.20;;;12.50;99.90;;;;;;5036730;28;20216;-71
2022/11/09 01:08:05;;;;;;;5.63;2.20;;;12.50;99.90;;;;;;5038891;28;20562;-73
2022/11/09 01:10:30;;;;;;;2.43;2.17;;;12.50;99.90;;;;;;5038219;28;20734;-73
2022/11/09 01:12:56;;;;;;;3.00;2.17;;;12.50;99.90;;;;;;5034926;28;20198;-73
2022/11/09 01:15:21;;;;;;;3.93;2.43;;;12.40;99.90;;;;;;5027173;28;20681;-72
2022/11/09 01:17:47;;;;;;;3.57;2.10;;;12.50;99.90;;;;;;5039855;28;20205;-73
2022/11/09 01:20:14;;;;;;;2.67;2.27;;;12.40;99.90;;;;;;5031654;28;20664;-75
2022/11/09 01:22:39;;;;;;;2.20;2.00;;;12.40;99.90;;;;;;5028910;28;20265;-76
2022/11/09 01:25:05;;;;;;;3.27;2.30;;;12.40;99.90;;;;;;5028346;28;20209;-79
2022/11/09 01:27:31;;;;;;;2.07;1.97;;;12.30;99.90;;;;;;5029571;28;20205;-78
2022/11/09 01:29:57;;;;;;;3.70;2.33;;;12.30;99.90;;;;;;5029697;28;20213;-79
2022/11/09 01:32:22;;;;;;;3.67;2.27;;;12.30;99.90;;;;;;5033079;28;20194;-76
2022/11/09 01:34:48;;;;;;;2.30;2.10;;;12.20;99.90;;;;;;5026419;28;20700;-76
2022/11/09 01:37:13;;;;;;;2.57;2.13;;;12.30;99.90;;;;;;5029330;28;20232;-76
2022/11/09 01:39:39;;;;;;;2.17;1.87;;;12.30;99.90;;;;;;5032217;28;20605;-75
2022/11/09 01:42:04;;;;;;;1.83;1.73;;;12.30;99.90;;;;;;5028706;28;20205;-77
2022/11/09 01:44:32;;;;;;;2.23;2.07;;;12.30;99.90;;;;;;5026641;28;20662;-75
2022/11/09 01:47:02;;;;;;;2.83;2.53;;;12.30;99.90;;;;;;5031419;28;20199;-75
2022/11/09 01:49:36;;;;;;;3.00;2.00;;;12.20;99.90;;;;;;5028968;28;20256;-78
2022/11/09 01:52:11;;;;;;;3.67;2.13;;;12.20;99.90;;;;;;5030150;28;20637;-81
2022/11/09 01:54:41;;;;;;;2.77;2.27;;;12.20;99.90;;;;;;5031064;28;20233;-82
2022/11/09 01:57:10;;;;;;;3.97;2.20;;;12.10;99.90;;;;;;5029117;28;20203;-82
2022/11/09 01:59:41;;;;;;;2.67;2.30;;;12.10;99.90;;;;;;5030602;28;20209;-82
2022/11/09 02:02:07;;;;;;;2.33;1.80;;;12.00;99.90;;;;;;5030446;28;20290;-80
2022/11/09 02:04:39;;;;;;;2.30;2.00;;;12.00;99.90;;;;;;5026934;28;20255;-80
2022/11/09 02:07:05;;;;;;;3.27;1.80;;;12.00;99.90;;;;;;5027866;28;20922;-76
2022/11/09 02:09:53;;;;;;;4.73;2.20;;;11.90;99.90;;;;;;5028982;28;20225;-78
2022/11/09 02:12:21;;;;;;;2.23;2.07;;;11.90;99.90;;;;;;5026289;28;20251;-79
2022/11/09 02:14:49;;;;;;;2.60;2.30;;;11.90;99.90;;;;;;5029376;28;20201;-76
2022/11/09 02:17:16;;;;;;;2.30;2.10;;;11.80;99.90;;;;;;5027647;28;20601;-77
2022/11/09 02:19:41;;;;;;;2.63;2.13;;;11.80;99.90;;;;;;5028433;28;20228;-77
2022/11/09 02:22:07;;;;;;;2.53;2.10;;;11.80;99.90;;;;;;5028940;28;20233;-76
2022/11/09 02:24:33;;;;;;;1.97;1.87;;;11.80;99.90;;;;;;5028676;28;20208;-76
2022/11/09 02:26:58;;;;;;;4.57;2.20;;;11.70;99.90;;;;;;5028861;28;20721;-77
2022/11/09 02:29:32;;;;;;;3.43;2.30;;;11.70;99.90;;;;;;5028484;28;20210;-76
2022/11/09 02:32:01;;;;;;;2.10;2.00;;;11.70;99.90;;;;;;5025070;28;20256;-77
2022/11/09 02:34:27;;;;;;;2.80;2.30;;;11.70;99.90;;;;;;5028974;28;20660;-77
2022/11/09 02:36:52;;;;;;;5.67;2.13;;;11.70;99.90;;;;;;5038493;28;20208;-77
2022/11/09 02:39:21;;;;;;;2.87;2.20;;;11.70;99.90;;;;;;5027641;28;20199;-77
2022/11/09 02:41:52;;;;;;;2.63;1.60;;;11.70;99.90;;;;;;5029493;28;20221;-77
2022/11/09 02:44:18;;;;;;;2.37;2.17;;;11.70;99.90;;;;;;5038331;28;20197;-76
2022/11/09 02:46:44;;;;;;;4.33;2.03;;;11.70;99.90;;;;;;5037818;28;20251;-75
2022/11/09 02:49:09;;;;;;;2.13;1.93;;;11.80;99.90;;;;;;5038279;28;20611;-74
2022/11/09 02:51:35;;;;;;;3.00;2.30;;;11.80;99.90;;;;;;5041027;28;20556;-73
2022/11/09 02:54:00;;;;;;;2.47;2.27;;;11.80;99.90;;;;;;5033193;28;20224;-74
2022/11/09 02:56:26;;;;;;;2.47;2.27;;;11.70;99.90;;;;;;5038161;28;20247;-76
2022/11/09 02:58:51;;;;;;;2.43;2.17;;;11.70;99.90;;;;;;5026868;28;20432;-76
2022/11/09 03:01:17;;;;;;;2.20;2.00;;;11.70;99.90;;;;;;5026315;28;20223;-75
2022/11/09 03:03:42;;;;;;;3.07;1.97;;;11.70;99.90;;;;;;5028600;28;20205;-68
2022/11/09 03:06:08;;;;;;;3.20;1.93;;;11.70;99.90;;;;;;5026063;28;20213;-76
2022/11/09 03:08:33;;;;;;;2.83;1.97;;;11.70;99.90;;;;;;5027756;28;20205;-74
2022/11/09 03:10:59;;;;;;;2.07;1.87;;;11.80;99.90;;;;;;5027929;28;20210;-73
2022/11/09 03:13:25;;;;;;;3.33;2.00;;;11.80;99.90;;;;;;5027537;28;20297;-73
2022/11/09 03:15:50;;;;;;;2.50;2.00;;;11.80;99.90;;;;;;5027892;28;20211;-73
2022/11/09 03:18:16;;;;;;;1.93;1.83;;;11.80;99.90;;;;;;5031511;28;20878;-73
2022/11/09 03:20:42;;;;;;;3.10;2.20;;;11.80;99.90;;;;;;5021668;28;20214;-73
2022/11/09 03:23:07;;;;;;;2.30;2.10;;;11.90;99.90;;;;;;5028201;28;20260;-73
2022/11/09 03:25:33;;;;;;;2.50;2.30;;;11.90;99.90;;;;;;5028693;28;20199;-72
2022/11/09 03:28:00;;;;;;;2.63;2.40;;;11.90;99.90;;;;;;5028046;28;20251;-72
2022/11/09 03:30:26;;;;;;;2.90;1.97;;;12.00;99.90;;;;;;5027029;28;20239;-73
2022/11/09 03:33:03;;;;;;;2.10;2.00;;;12.00;99.90;;;;;;5031660;28;20207;-76
2022/11/09 03:35:29;;;;;;;3.47;2.50;;;12.00;99.90;;;;;;5028072;28;21492;-77
2022/11/09 03:37:54;;;;;;;2.13;1.93;;;12.10;99.90;;;;;;5033003;28;20241;-78
2022/11/09 03:40:20;;;;;;;2.10;1.90;;;12.10;99.90;;;;;;5045572;28;20219;-78
2022/11/09 03:42:47;;;;;;;4.97;2.27;;;12.10;99.90;;;;;;5029670;28;20201;-78
2022/11/09 03:45:14;;;;;;;2.90;2.60;;;12.10;99.90;;;;;;5024152;28;20214;-78
2022/11/09 03:47:45;;;;;;;5.00;2.87;;;12.20;99.90;;;;;;5027852;28;20202;-77
2022/11/09 03:50:12;;;;;;;3.23;2.10;;;12.20;99.90;;;;;;5028224;28;20327;-78
2022/11/09 03:52:37;;;;;;;2.90;2.40;;;12.20;99.90;;;;;;5028223;28;20216;-78
2022/11/09 03:55:05;;;;;;;3.43;2.43;;;12.20;99.90;;;;;;5043896;28;20225;-78
2022/11/09 03:57:30;;;;;;;2.20;1.83;;;12.30;99.90;;;;;;5042462;28;20203;-78
2022/11/09 03:59:56;;;;;;;2.93;2.43;;;12.30;99.90;;;;;;5047704;28;20294;-77
2022/11/09 04:02:21;;;;;;;3.00;2.40;;;12.30;99.90;;;;;;5022327;28;20195;-77
2022/11/09 04:04:47;;;;;;;2.03;1.93;;;12.30;99.90;;;;;;5027425;28;20202;-77
2022/11/09 04:07:13;;;;;;;2.40;2.13;;;12.30;99.90;;;;;;5029453;28;20256;-78
2022/11/09 04:09:39;;;;;;;3.00;2.17;;;12.30;99.90;;;;;;5027364;28;20766;-76
2022/11/09 04:12:05;;;;;;;2.37;2.17;;;12.30;99.90;;;;;;5027682;28;20203;-77
2022/11/09 04:14:30;;;;;;;2.40;2.10;;;12.30;99.90;;;;;;5025811;28;20214;-77
2022/11/09 04:16:56;;;;;;;3.60;2.07;;;12.30;99.90;;;;;;5027882;28;20209;-77
2022/11/09 04:19:22;;;;;;;3.17;2.40;;;12.30;99.90;;;;;;5028866;28;20203;-78
2022/11/09 04:21:47;;;;;;;2.23;2.10;;;12.30;99.90;;;;;;5026820;28;20267;-77
2022/11/09 04:24:13;;;;;;;1.80;1.70;;;12.30;99.90;;;;;;5024136;28;20192;-78
2022/11/09 04:26:38;;;;;;;2.27;2.07;;;12.40;99.90;;;;;;5048978;28;20229;-79
2022/11/09 04:29:04;;;;;;;2.43;2.23;;;12.40;99.90;;;;;;5053729;28;20201;-78
2022/11/09 04:31:29;;;;;;;3.67;2.13;;;12.30;99.90;;;;;;5059024;28;20198;-79
2022/11/09 04:33:55;;;;;;;4.97;2.50;;;12.40;99.90;;;;;;5043157;28;20194;-79
2022/11/09 04:36:21;;;;;;;2.80;1.90;;;12.40;99.90;;;;;;5051597;28;20293;-78
2022/11/09 04:38:46;;;;;;;1.93;1.80;;;12.40;99.90;;;;;;5050520;28;20329;-80
2022/11/09 04:41:12;;;;;;;2.63;2.43;;;12.40;99.90;;;;;;5042263;28;20214;-78
2022/11/09 04:43:37;;;;;;;3.00;2.03;;;12.40;99.90;;;;;;5058908;28;20206;-78
2022/11/09 04:46:03;;;;;;;2.47;2.27;;;12.40;99.90;;;;;;5038001;28;20565;-77
2022/11/09 04:48:30;;;;;;;2.23;2.13;;;12.40;99.90;;;;;;5029238;28;20214;-77
2022/11/09 04:51:00;;;;;;;2.20;2.00;;;12.40;99.90;;;;;;5031017;28;20218;-80
2022/11/09 04:53:26;;;;;;;2.63;2.43;;;12.40;99.90;;;;;;5037233;28;20218;-79
2022/11/09 04:55:51;;;;;;;2.50;2.30;;;12.40;99.90;;;;;;5032355;28;20223;-65
2022/11/09 04:58:17;;;;;;;2.43;2.23;;;12.40;99.90;;;;;;5029569;28;20224;-64
2022/11/09 05:00:42;;;;;;;2.87;2.50;;;12.40;99.90;;;;;;5025625;28;20218;-65
2022/11/09 05:03:08;;;;;;;3.27;2.10;;;12.40;99.90;;;;;;5025131;28;20311;-65
2022/11/09 05:05:35;;;;;;;3.53;2.70;;;12.40;99.90;;;;;;5025883;28;20210;-64
2022/11/09 05:08:00;;;;;;;2.80;2.10;;;12.40;99.90;;;;;;5025909;28;20401;-64
2022/11/09 05:10:26;;;;;;;3.90;1.97;;;12.40;99.90;;;;;;5026004;28;20543;-63
2022/11/09 05:12:58;;;;;;;2.77;1.80;;;12.40;99.90;;;;;;5025690;28;20542;-63
2022/11/09 05:15:24;;;;;;;2.93;2.30;;;12.40;99.90;;;;;;5024756;28;20234;-64
2022/11/09 05:17:50;;;;;;;2.97;2.40;;;12.50;99.90;;;;;;5026528;28;20256;-64
2022/11/09 05:20:15;;;;;;;4.87;2.30;;;12.50;99.90;;;;;;5028108;28;20218;-65
2022/11/09 05:25:25;;;;;;;2.47;2.27;;;12.50;99.90;;;;;;5034716;28;20229;-64
2022/11/09 05:27:51;;;;;;;3.53;2.67;;;12.50;99.90;;;;;;5025628;28;20688;-64
2022/11/09 05:30:16;;;;;;;3.40;2.30;;;12.50;99.90;;;;;;5026643;28;20309;-64
2022/11/09 05:32:42;;;;;;;2.77;2.43;;;12.50;99.90;;;;;;5024708;28;20195;-64
2022/11/09 05:35:08;;;;;;;3.33;2.33;;;12.50;99.90;;;;;;5034117;28;20251;-64
2022/11/09 05:37:33;;;;;;;2.97;2.43;;;12.50;99.90;;;;;;5029049;28;20194;-65
2022/11/09 05:39:59;;;;;;;3.70;2.23;;;12.50;99.90;;;;;;5022008;28;20309;-65
2022/11/09 05:42:24;;;;;;;3.47;2.37;;;12.50;99.90;;;;;;5025940;28;20196;-65
2022/11/09 05:44:50;;;;;;;3.13;2.53;;;12.40;99.90;;;;;;5026072;28;20590;-65
2022/11/09 05:47:15;;;;;;;4.90;3.00;;;12.40;99.90;;;;;;5034786;28;20657;-65
2022/11/09 05:49:41;;;;;;;3.37;2.70;;;12.40;99.90;;;;;;5025389;28;20603;-64
2022/11/09 05:52:06;;;;;;;3.00;2.70;;;12.40;99.90;;;;;;5025058;28;20551;-64
2022/11/09 05:54:32;;;;;;;4.37;2.67;;;12.40;99.90;;;;;;5028945;28;20210;-64
2022/11/09 05:56:59;;;;;;;3.73;2.23;;;12.40;99.90;;;;;;5039140;28;20709;-65
2022/11/09 05:59:24;;;;;;;3.53;2.30;;;12.40;99.90;;;;;;5039143;28;20675;-64
2022/11/09 06:01:50;;;;;;;7.67;3.23;;;12.40;99.90;;;;;;5039058;28;20308;-65
2022/11/09 06:04:15;;;;;;;4.00;2.30;;;12.40;99.90;;;;;;5037000;28;20224;-64
2022/11/09 06:06:42;;;;;;;2.40;2.17;;;12.40;99.90;;;;;;5042487;28;20201;-64
2022/11/09 06:09:07;;;;;;;3.27;2.77;;;12.40;99.90;;;;;;5035502;28;20214;-65
2022/11/09 06:11:33;;;;;;;2.87;2.67;;;12.50;99.90;;;;;;5039032;28;20450;-64
2022/11/09 06:13:58;;;;;;;5.50;2.60;;;12.50;99.90;;;;;;5038797;28;20214;-64
2022/11/09 06:16:24;;;;;;;3.67;2.50;;;12.50;99.90;;;;;;5038816;28;20572;-65
2022/11/09 06:18:49;;;;;;;3.03;2.73;;;12.50;99.90;;;;;;5036663;28;20206;-65
2022/11/09 06:21:15;;;;;;;5.70;2.70;;;12.50;99.90;;;;;;5038407;28;20447;-65
2022/11/09 06:23:40;;;;;;;7.63;3.10;;;12.50;99.90;;;;;;5038553;28;20212;-65
2022/11/09 06:26:09;;;;;;;3.10;2.40;;;12.60;99.90;;;;;;5038428;28;20705;-67
2022/11/09 06:28:35;;;;;;;2.97;2.67;;;12.60;99.90;;;;;;5038887;28;20199;-65
2022/11/09 06:31:02;;;;;;;2.93;2.73;;;12.60;99.90;;;;;;5035781;28;20298;-65
2022/11/09 06:33:33;;;;;;;4.20;2.73;;;12.60;99.90;;;;;;5038644;28;20285;-65
2022/11/09 06:35:58;;;;;;;3.47;2.30;;;12.60;99.90;;;;;;5038506;28;20666;-65
2022/11/09 06:38:28;;;;;;;3.27;2.73;;;12.60;99.90;;;;;;5036729;28;20209;-66
2022/11/09 06:40:55;;;;;;;4.13;2.50;;;12.60;99.90;;;;;;5038051;28;20703;-65
2022/11/09 06:43:20;;;;;;;4.10;3.70;;;12.60;99.90;;;;;;5038634;28;20209;-65
2022/11/09 06:45:46;;;;;;;2.80;2.57;;;12.60;99.90;;;;;;5040287;28;20191;-69
2022/11/09 06:48:12;;;;;;;4.13;2.43;;;12.60;99.90;;;;;;5036033;28;20722;-66
2022/11/09 06:50:37;;;;;;;4.60;2.97;;;12.60;99.90;;;;;;5038392;28;20300;-66
2022/11/09 06:53:05;;;;;;;4.07;2.57;;;12.50;99.90;;;;;;5037953;28;20288;-66
2022/11/09 06:55:33;;;;;;;6.97;3.40;;;12.50;99.90;;;;;;5033312;28;20304;-65
2022/11/09 06:57:59;;;;;;;5.27;4.00;;;12.50;99.90;;;;;;5037209;28;20206;-65
2022/11/09 07:00:26;;;;;;;3.80;2.93;;;12.50;99.90;;;;;;5039984;28;20270;-65
2022/11/09 07:02:52;;;;;;;9.00;4.40;;;12.40;99.90;;;;;;5036366;28;20215;-65
2022/11/09 07:05:18;;;;;;;3.10;2.80;;;12.40;99.90;;;;;;5036002;28;20332;-62
2022/11/09 07:07:43;;;;;;;5.80;3.30;;;12.40;99.90;;;;;;5036059;28;20294;-62
2022/11/09 07:10:10;;;;;;;4.57;3.10;;;12.50;99.90;;;;;;5037072;28;20206;-63
2022/11/09 07:12:35;;;;;;;2.53;2.33;;;12.60;99.90;;;;;;5037960;28;20205;-63
2022/11/09 07:15:02;;;;;;;4.27;3.37;;;12.50;99.90;;;;;;5038092;28;20570;-64
2022/11/09 07:17:31;;;;;;;3.60;2.83;;;12.40;99.90;;;;;;5037741;28;20571;-64
2022/11/09 07:19:57;;;;;;;4.10;3.70;;;12.40;99.90;;;;;;5040582;28;20209;-62
2022/11/09 07:22:22;;;;;;;5.33;2.97;;;12.30;99.90;;;;;;5034280;28;20202;-64
2022/11/09 07:24:48;;;;;;;6.27;4.30;;;12.30;99.90;;;;;;5037568;28;21114;-63
2022/11/09 07:27:13;;;;;;;5.33;3.57;;;12.30;99.90;;;;;;5028020;28;20201;-63
2022/11/09 07:29:39;;;;;;;5.30;3.10;;;12.30;99.90;;;;;;5027948;28;20201;-63
2022/11/09 07:32:04;;;;;;;4.13;2.83;;;12.30;99.90;;;;;;5027645;28;20202;-62
2022/11/09 07:34:30;;;;;;;2.93;2.67;;;12.30;99.90;;;;;;5027071;28;20622;-62
2022/11/09 07:36:55;;;;;;;3.90;3.33;;;12.30;99.90;;;;;;5028276;28;20198;-63
2022/11/09 07:39:21;;;;;;;3.87;3.47;;;12.30;99.90;;;;;;5025628;28;20195;-63
2022/11/09 07:41:47;;;;;;;3.60;3.33;;;12.30;99.90;;;;;;5035956;28;20298;-62
2022/11/09 07:44:17;;;;;;;5.03;3.30;;;12.30;99.90;;;;;;5026997;28;20223;-62
2022/11/09 07:46:46;;;;;;;6.13;3.93;;;12.20;99.90;;;;;;5025191;28;20204;-62
2022/11/09 07:49:12;;;;;;;5.13;2.93;;;12.20;99.90;;;;;;5027653;28;20559;-62
2022/11/09 07:51:38;;;;;;;4.27;3.70;;;12.20;99.90;;;;;;5028563;28;20206;-62
2022/11/09 07:54:04;;;;;;;5.03;3.00;;;12.20;99.90;;;;;;5027624;28;20708;-64
2022/11/09 07:56:29;;;;;;;3.67;3.37;;;12.30;99.90;;;;;;5034248;28;20249;-64
2022/11/09 07:58:55;;;;;;;4.57;3.80;;;12.30;99.90;;;;;;5027559;28;20216;-63
2022/11/09 08:01:21;;;;;;;5.10;3.50;;;12.30;99.90;;;;;;5035812;28;20238;-63
2022/11/09 08:03:47;;;;;;;4.50;3.20;;;12.30;99.90;;;;;;5038866;28;20194;-64
2022/11/09 08:06:12;;;;;;;5.67;3.30;;;12.30;99.90;;;;;;5034550;28;20192;-63
2022/11/09 08:08:38;;;;;;;3.17;2.80;;;12.30;99.90;;;;;;5036493;28;20347;-63
2022/11/09 08:11:03;;;;;;;3.00;2.77;;;12.40;99.90;;;;;;5028131;28;20198;-65
2022/11/09 08:13:29;;;;;;;3.33;3.03;;;12.40;99.90;;;;;;5030854;28;20209;-64
2022/11/09 08:15:54;;;;;;;6.07;3.20;;;12.40;99.90;;;;;;5036109;28;20237;-65
2022/11/09 08:18:21;;;;;;;5.60;3.90;;;12.40;99.90;;;;;;5034151;28;20203;-61
2022/11/09 08:20:47;;;;;;;4.57;3.93;;;12.40;99.90;;;;;;5025284;28;20900;-61
2022/11/09 08:23:15;;;;;;;6.37;3.10;;;12.40;99.90;;;;;;5027055;28;20205;-63
2022/11/09 08:25:40;;;;;;;6.10;4.37;;;12.40;99.90;;;;;;5026216;28;20396;-63
2022/11/09 08:28:07;;;;;;;4.90;3.23;;;12.40;99.90;;;;;;5026528;28;20737;-64
2022/11/09 08:30:32;;;;;;;4.57;4.03;;;12.40;99.90;;;;;;5030772;28;20214;-63
2022/11/09 08:32:59;;;;;;;7.80;3.40;;;12.40;99.90;;;;;;5030103;28;20222;-62
2022/11/09 08:35:26;;;;;;;3.20;2.97;;;12.50;99.90;;;;;;5029998;28;20691;-63
2022/11/09 08:37:52;;;;;;;4.73;3.17;;;12.50;99.90;;;;;;5022233;28;20210;-64
2022/11/09 08:40:21;;;;;;;4.90;3.57;;;12.50;99.90;;;;;;5027543;28;20302;-64
2022/11/09 08:42:47;;;;;;;3.20;2.90;;;12.50;99.90;;;;;;5027764;28;20225;-64
2022/11/09 08:45:13;;;;;;;5.57;3.70;;;12.60;99.90;;;;;;5022894;28;20701;-63
2022/11/09 08:47:39;;;;;;;4.07;3.07;;;12.60;99.90;;;;;;5026236;28;20252;-63
2022/11/09 08:50:06;;;;;;;3.87;3.17;;;12.60;99.90;;;;;;5026158;28;20297;-64
2022/11/09 08:52:32;;;;;;;7.43;3.17;;;12.60;99.90;;;;;;5025746;28;20199;-64
2022/11/09 08:54:58;;;;;;;5.87;3.90;;;12.60;99.90;;;;;;5026031;28;20632;-64
2022/11/09 08:57:23;;;;;;;5.80;3.33;;;12.60;99.90;;;;;;5024556;28;20210;-64
2022/11/09 08:59:49;;;;;;;7.87;3.63;;;12.50;99.90;;;;;;5026573;28;20199;-64
2022/11/09 09:02:15;;;;;;;3.27;3.00;;;12.60;99.90;;;;;;5025407;28;20686;-63
2022/11/09 09:04:40;;;;;;;4.20;3.33;;;12.60;99.90;;;;;;5025968;28;20199;-62
2022/11/09 09:07:07;;;;;;;6.07;4.17;;;12.60;99.90;;;;;;5026818;28;20668;-66
2022/11/09 09:09:33;;;;;;;3.87;3.20;;;12.70;99.90;;;;;;5021956;28;20256;-63
2022/11/09 09:11:59;;;;;;;3.70;3.27;;;12.70;99.90;;;;;;5025811;28;20245;-63
2022/11/09 09:14:25;;;;;;;3.50;3.20;;;12.70;99.90;;;;;;5026000;28;20248;-63
2022/11/09 09:16:51;;;;;;;6.83;4.10;;;12.70;99.90;;;;;;5025348;28;20483;-63
2022/11/09 09:19:16;;;;;;;3.53;3.23;;;12.80;99.90;;;;;;5024954;28;20738;-69
2022/11/09 09:21:42;;;;;;;6.17;3.67;;;12.90;99.90;;;;;;5024426;28;20235;-72
2022/11/09 09:24:08;;;;;;;9.77;3.90;;;12.90;99.90;;;;;;5024025;28;20203;-72
2022/11/09 09:26:34;;;;;;;6.07;3.43;;;13.00;99.90;;;;;;5026088;28;20206;-71
2022/11/09 09:28:59;;;;;;;4.53;3.67;;;13.00;99.90;;;;;;5028728;28;20200;-74
2022/11/09 09:31:25;;;;;;;5.93;4.07;;;13.10;99.90;;;;;;5029394;28;20224;-70
2022/11/09 09:33:50;;;;;;;3.97;3.43;;;13.10;99.90;;;;;;5028671;28;20203;-58
2022/11/09 09:36:18;;;;;;;4.93;4.23;;;13.20;99.90;;;;;;5028288;28;20307;-57
2022/11/09 09:38:44;;;;;;;6.60;3.57;;;13.40;99.90;;;;;;5027307;28;20225;-59
2022/11/09 09:41:26;;;;;;;7.33;3.23;;;13.50;99.90;;;;;;5029220;28;20704;-59
2022/11/09 09:43:56;;;;;;;3.83;3.27;;;13.50;99.90;;;;;;5029086;28;20214;-58
2022/11/09 09:46:40;;;;;;;3.87;3.33;;;13.60;99.90;;;;;;5030484;28;20673;-58
2022/11/09 09:49:14;;;;;;;21.03;6.60;;;13.60;99.90;;;;;;5028087;28;20218;-59
2022/11/09 09:51:51;;;;;;;8.43;4.57;;;13.60;99.90;;;;;;5037787;28;20289;-60
2022/11/09 09:54:26;;;;;;;4.50;4.10;;;13.60;99.90;;;;;;5036660;28;20244;-58
2022/11/09 09:56:55;;;;;;;4.83;4.07;;;13.60;99.90;;;;;;5026033;28;20253;-69
2022/11/09 09:59:40;;;;;;;6.47;3.97;;;13.70;99.90;;;;;;5038472;28;20235;-58
2022/11/09 10:02:29;;;;;;;6.17;3.80;;;13.70;99.90;;;;;;5028430;28;20276;-58
2022/11/09 10:05:00;;;;;;;4.10;3.37;;;13.70;99.90;;;;;;5025639;28;20205;-58
2022/11/09 10:07:28;;;;;;;4.10;3.53;;;13.70;99.90;;;;;;5025652;28;20338;-58
2022/11/09 10:09:57;;;;;;;3.83;3.30;;;13.70;99.90;;;;;;5028545;28;20700;-60
2022/11/09 10:12:55;;;;;;;3.47;3.03;;;13.80;99.90;;;;;;5027598;28;20214;-62
2022/11/09 10:15:37;;;;;;;4.57;3.80;;;13.80;99.90;;;;;;5025690;28;20636;-59
2022/11/09 10:18:25;;;;;;;3.97;3.60;;;13.90;99.90;;;;;;5030841;28;20203;-59
2022/11/09 10:21:14;;;;;;;3.93;3.50;;;13.90;99.90;;;;;;5026847;28;20681;-59
2022/11/09 10:24:00;;;;;;;4.33;3.57;;;13.90;99.90;;;;;;5033428;28;20195;-60
2022/11/09 10:26:37;;;;;;;4.53;3.87;;;13.90;99.90;;;;;;5038760;28;20658;-62
2022/11/09 10:29:26;;;;;;;3.73;3.43;;;13.80;99.90;;;;;;5038691;28;20707;-58
2022/11/09 10:31:56;;;;;;;6.67;5.17;;;13.80;99.90;;;;;;5039820;28;20737;-58
2022/11/09 10:34:31;;;;;;;5.23;3.83;;;13.80;99.90;;;;;;5038750;28;20400;-59
2022/11/09 10:37:23;;;;;;;4.50;3.37;;;13.90;99.90;;;;;;5034518;28;20211;-59
2022/11/09 10:40:17;;;;;;;3.67;3.33;;;13.90;99.90;;;;;;5032699;28;20221;-59
2022/11/09 10:42:55;;;;;;;4.37;3.73;;;14.10;99.90;;;;;;5028931;28;20284;-59
2022/11/09 10:45:26;;;;;;;4.87;3.33;;;14.30;99.90;;;;;;5028366;28;20203;-58
2022/11/09 10:47:51;;;;;;;5.67;3.97;;;14.60;99.90;;;;;;5026545;28;20217;-59
2022/11/09 10:50:40;;;;;;;3.10;2.80;;;14.70;99.90;;;;;;5028915;28;20198;-59
2022/11/09 10:53:23;;;;;;;4.73;4.33;;;14.80;99.90;;;;;;5025555;28;20226;-59
2022/11/09 10:55:54;;;;;;;3.87;2.77;;;14.80;99.90;;;;;;5026671;28;20219;-57
2022/11/09 10:58:37;;;;;;;4.57;3.93;;;14.70;99.90;;;;;;5027814;28;20205;-57
2022/11/09 11:01:13;;;;;;;3.80;3.37;;;14.60;99.90;;;;;;5027233;28;20226;-57
2022/11/09 11:03:40;;;;;;;3.60;3.30;;;14.80;99.90;;;;;;5029244;28;20305;-59
2022/11/09 11:06:16;;;;;;;6.90;4.77;;;15.00;99.90;;;;;;5026355;28;20265;-58
2022/11/09 11:08:44;;;;;;;3.57;3.27;;;15.20;99.90;;;;;;5027741;28;20239;-58
2022/11/09 11:11:21;;;;;;;2.73;2.53;;;15.40;99.90;;;;;;5026319;28;20203;-60
2022/11/09 11:13:48;;;;;;;4.50;2.97;;;15.70;99.90;;;;;;5037471;28;20203;-56
2022/11/09 11:16:34;;;;;;;3.33;3.03;;;15.80;99.90;;;;;;5038518;28;20898;-57
2022/11/09 11:19:01;;;;;;;5.87;2.90;;;15.90;99.90;;;;;;5037516;28;20207;-58
2022/11/09 11:21:27;;;;;;;5.13;3.00;;;16.00;99.90;;;;;;5034910;28;20707;-57
2022/11/09 11:24:09;;;;;;;4.37;2.80;;;16.00;99.90;;;;;;5025046;28;20326;-57
2022/11/09 11:26:55;;;;;;;3.07;2.37;;;15.90;99.90;;;;;;5037726;28;20195;-58
2022/11/09 11:29:30;;;;;;;2.57;2.37;;;15.70;99.90;;;;;;5030568;28;20472;-58
2022/11/09 11:31:56;;;;;;;2.30;2.10;;;15.60;99.90;;;;;;5037143;28;20202;-58
2022/11/09 11:34:21;;;;;;;2.20;2.00;;;15.50;99.90;;;;;;5039527;28;20580;-59
2022/11/09 11:37:13;;;;;;;3.20;2.23;;;15.70;99.90;;;;;;5032752;28;20256;-59
2022/11/09 11:39:51;;;;;;;3.40;2.60;;;16.00;99.90;;;;;;5037766;28;20211;-57
2022/11/09 11:42:55;;;;;;;4.63;3.20;;;16.40;99.90;;;;;;5037742;28;20200;-58
2022/11/09 11:45:34;;;;;;;2.47;2.27;;;16.60;99.90;;;;;;5025254;28;20199;-58
2022/11/09 11:48:25;;;;;;;3.27;2.30;;;16.90;99.90;;;;;;5034221;28;20273;-58
2022/11/09 11:51:11;;;;;;;2.53;2.33;;;17.30;99.90;;;;;;5029266;28;20293;-59
2022/11/09 11:54:00;;;;;;;2.23;2.00;;;17.90;99.90;;;;;;5037259;28;20210;-59
2022/11/09 11:56:43;;;;;;;3.63;2.23;;;18.20;99.90;;;;;;5031436;28;20571;-58
2022/11/09 11:59:48;;;;;;;3.23;2.07;;;18.50;99.90;;;;;;5026692;28;20238;-58
2022/11/09 12:02:52;;;;;;;4.17;2.20;;;18.70;99.90;;;;;;5026553;28;20633;-56
2022/11/09 12:05:49;;;;;;;2.67;2.47;;;19.00;99.90;;;;;;5028150;28;20275;-58
2022/11/09 12:08:27;;;;;;;3.07;2.10;;;19.40;99.90;;;;;;5033556;28;20232;-60
2022/11/09 12:11:22;;;;;;;3.00;2.30;;;19.60;99.90;;;;;;5025377;28;20214;-59
2022/11/09 12:14:20;;;;;;;3.00;2.73;;;19.90;99.90;;;;;;5023219;28;20696;-60
2022/11/09 12:17:00;;;;;;;3.60;1.97;;;20.20;99.90;;;;;;5032678;28;20202;-59
2022/11/09 12:19:58;;;;;;;1.90;1.80;;;20.30;99.90;;;;;;5036695;28;20288;-60
2022/11/09 12:22:44;;;;;;;2.27;2.03;;;20.30;99.90;;;;;;5037005;28;20267;-60
2022/11/09 12:25:22;;;;;;;2.90;1.80;;;20.30;99.90;;;;;;5036206;28;20226;-61
2022/11/09 12:28:13;;;;;;;1.93;1.60;;;20.20;99.90;;;;;;5037144;28;20197;-60
2022/11/09 12:31:14;;;;;;;2.03;1.87;;;20.30;99.90;;;;;;5034611;28;20217;-59
2022/11/09 12:33:48;;;;;;;6.27;2.00;;;19.90;99.90;;;;;;5032122;28;20604;-60
2022/11/09 12:36:28;;;;;;;2.20;2.00;;;20.00;99.90;;;;;;5023761;28;21231;-59
2022/11/09 12:38:57;;;;;;;1.70;1.60;;;20.20;99.90;;;;;;5033230;28;20575;-73
2022/11/09 12:41:27;;;;;;;2.67;1.50;;;20.00;99.90;;;;;;5036447;28;20683;-68
2022/11/09 12:44:01;;;;;;;5.93;2.03;;;20.00;99.90;;;;;;5031273;28;20203;-61
2022/11/09 12:46:33;;;;;;;3.33;1.77;;;20.20;99.90;;;;;;5027007;28;20233;-60
2022/11/09 12:49:03;;;;;;;2.53;1.70;;;20.40;99.90;;;;;;5026462;28;20206;-60
2022/11/09 12:51:29;;;;;;;3.33;2.20;;;19.80;99.90;;;;;;5026141;28;20228;-60
2022/11/09 12:53:56;;;;;;;2.10;1.80;;;19.60;99.90;;;;;;5033288;28;20755;-60
2022/11/09 12:56:33;;;;;;;1.93;1.83;;;19.70;99.90;;;;;;5027327;28;20226;-59
2022/11/09 12:59:18;;;;;;;3.77;2.17;;;19.80;99.90;;;;;;5032337;28;20213;-60
2022/11/09 13:01:47;;;;;;;1.73;1.63;;;19.80;99.90;;;;;;5030535;28;20312;-59
2022/11/09 13:04:17;;;;;;;1.90;1.73;;;19.90;99.90;;;;;;5040740;28;20205;-59